sensor_id;sensor_type;location;lat;lon;timestamp;temperature;humidity
22544;DHT22;11438;52.044;8.716;2023-11-18T00:00:08;7.50;99.90
22544;DHT22;11438;52.044;8.716;2023-11-18T00:02:38;7.60;99.90
22544;DHT22;11438;52.044;8.716;2023-11-18T00:05:04;7.60;99.90
22544;DHT22;11438;52.044;8.716;2023-11-18T00:07:30;7.60;99.90
22544;DHT22;11438;52.044;8.716;2023-11-18T00:09:57;7.60;99.90
22544;DHT22;11438;52.044;8.716;2023-11-18T00:12:23;7.60;99.90
22544;DHT22;11438;52.044;8.716;2023-11-18T00:14:50;7.60;99.90
22544;DHT22;11438;52.044;8.716;2023-11-18T00:17:15;7.60;99.90
22544;DHT22;11438;52.044;8.716;2023-11-18T00:19:41;7.70;99.90
22544;DHT22;11438;52.044;8.716;2023-11-18T00:22:08;7.70;99.90
22544;DHT22;11438;52.044;8.716;2023-11-18T00:24:33;7.70;99.90
22544;DHT22;11438;52.044;8.716;2023-11-18T00:27:02;7.70;99.90
22544;DHT22;11438;52.044;8.716;2023-11-18T00:29:33;7.70;99.90
22544;DHT22;11438;52.044;8.716;2023-11-18T00:32:00;7.70;99.90
22544;DHT22;11438;52.044;8.716;2023-11-18T00:34:25;7.70;99.90
22544;DHT22;11438;52.044;8.716;2023-11-18T00:36:51;7.70;99.90
22544;DHT22;11438;52.044;8.716;2023-11-18T00:39:17;7.60;99.90
22544;DHT22;11438;52.044;8.716;2023-11-18T00:41:43;7.60;99.90
22544;DHT22;11438;52.044;8.716;2023-11-18T00:44:08;7.60;99.90
22544;DHT22;11438;52.044;8.716;2023-11-18T00:46:35;7.60;99.90
22544;DHT22;11438;52.044;8.716;2023-11-18T00:49:02;7.50;99.90
22544;DHT22;11438;52.044;8.716;2023-11-18T00:51:27;7.60;99.90
22544;DHT22;11438;52.044;8.716;2023-11-18T00:53:54;7.50;99.90
22544;DHT22;11438;52.044;8.716;2023-11-18T00:56:20;7.50;99.90
22544;DHT22;11438;52.044;8.716;2023-11-18T00:58:47;7.50;99.90
22544;DHT22;11438;52.044;8.716;2023-11-18T01:01:13;7.50;99.90
22544;DHT22;11438;52.044;8.716;2023-11-18T01:03:39;7.50;99.90
22544;DHT22;11438;52.044;8.716;2023-11-18T01:06:04;7.50;99.90
22544;DHT22;11438;52.044;8.716;2023-11-18T01:08:31;7.60;99.90
22544;DHT22;11438;52.044;8.716;2023-11-18T01:10:57;7.50;99.90
22544;DHT22;11438;52.044;8.716;2023-11-18T01:13:22;7.50;99.90
22544;DHT22;11438;52.044;8.716;2023-11-18T01:15:48;7.50;99.90
22544;DHT22;11438;52.044;8.716;2023-11-18T01:18:14;7.60;99.90
22544;DHT22;11438;52.044;8.716;2023-11-18T01:20:40;7.60;99.90
22544;DHT22;11438;52.044;8.716;2023-11-18T01:23:05;7.60;99.90
22544;DHT22;11438;52.044;8.716;2023-11-18T01:25:31;7.60;99.90
22544;DHT22;11438;52.044;8.716;2023-11-18T01:27:56;7.70;99.90
22544;DHT22;11438;52.044;8.716;2023-11-18T01:30:22;7.70;99.90
22544;DHT22;11438;52.044;8.716;2023-11-18T01:32:49;7.70;99.90
22544;DHT22;11438;52.044;8.716;2023-11-18T01:35:14;7.70;99.90
22544;DHT22;11438;52.044;8.716;2023-11-18T01:37:40;7.70;99.90
22544;DHT22;11438;52.044;8.716;2023-11-18T01:40:06;7.80;99.90
22544;DHT22;11438;52.044;8.716;2023-11-18T01:42:33;7.80;99.90
22544;DHT22;11438;52.044;8.716;2023-11-18T01:44:59;7.80;99.90
22544;DHT22;11438;52.044;8.716;2023-11-18T01:47:29;7.80;99.90
22544;DHT22;11438;52.044;8.716;2023-11-18T01:49:58;7.90;99.90
22544;DHT22;11438;52.044;8.716;2023-11-18T01:52:26;7.90;99.90
22544;DHT22;11438;52.044;8.716;2023-11-18T01:54:53;7.90;99.90
22544;DHT22;11438;52.044;8.716;2023-11-18T01:57:20;7.90;99.90
22544;DHT22;11438;52.044;8.716;2023-11-18T01:59:46;7.90;99.90
22544;DHT22;11438;52.044;8.716;2023-11-18T02:02:12;8.00;99.90
22544;DHT22;11438;52.044;8.716;2023-11-18T02:04:38;8.00;99.90
22544;DHT22;11438;52.044;8.716;2023-11-18T02:07:04;8.00;99.90
22544;DHT22;11438;52.044;8.716;2023-11-18T02:09:34;8.10;99.90
22544;DHT22;11438;52.044;8.716;2023-11-18T02:12:23;8.10;99.90
22544;DHT22;11438;52.044;8.716;2023-11-18T02:14:53;8.10;99.90
22544;DHT22;11438;52.044;8.716;2023-11-18T02:17:22;8.10;99.90
22544;DHT22;11438;52.044;8.716;2023-11-18T02:19:50;8.10;99.90
22544;DHT22;11438;52.044;8.716;2023-11-18T02:22:16;8.20;99.90
22544;DHT22;11438;52.044;8.716;2023-11-18T02:24:42;8.20;99.90
22544;DHT22;11438;52.044;8.716;2023-11-18T02:27:07;8.20;99.90
22544;DHT22;11438;52.044;8.716;2023-11-18T02:29:39;8.30;99.90
22544;DHT22;11438;52.044;8.716;2023-11-18T02:32:18;8.30;99.90
22544;DHT22;11438;52.044;8.716;2023-11-18T02:35:06;8.30;99.90
22544;DHT22;11438;52.044;8.716;2023-11-18T02:37:39;8.30;99.90
22544;DHT22;11438;52.044;8.716;2023-11-18T02:40:08;8.30;99.90
22544;DHT22;11438;52.044;8.716;2023-11-18T02:42:40;8.30;99.90
22544;DHT22;11438;52.044;8.716;2023-11-18T02:45:09;8.30;99.90
22544;DHT22;11438;52.044;8.716;2023-11-18T02:47:38;8.30;99.90
22544;DHT22;11438;52.044;8.716;2023-11-18T02:50:05;8.30;99.90
22544;DHT22;11438;52.044;8.716;2023-11-18T02:52:36;8.30;99.90
22544;DHT22;11438;52.044;8.716;2023-11-18T02:55:04;8.30;99.90
22544;DHT22;11438;52.044;8.716;2023-11-18T02:57:32;8.30;99.90
22544;DHT22;11438;52.044;8.716;2023-11-18T02:59:58;8.20;99.90
22544;DHT22;11438;52.044;8.716;2023-11-18T03:02:28;8.20;99.90
22544;DHT22;11438;52.044;8.716;2023-11-18T03:04:58;8.20;99.90
22544;DHT22;11438;52.044;8.716;2023-11-18T03:07:24;8.20;99.90
22544;DHT22;11438;52.044;8.716;2023-11-18T03:09:54;8.20;99.90
22544;DHT22;11438;52.044;8.716;2023-11-18T03:12:22;8.20;99.90
22544;DHT22;11438;52.044;8.716;2023-11-18T03:14:48;8.20;99.90
22544;DHT22;11438;52.044;8.716;2023-11-18T03:17:14;8.10;99.90
22544;DHT22;11438;52.044;8.716;2023-11-18T03:19:39;8.10;99.90
22544;DHT22;11438;52.044;8.716;2023-11-18T03:22:06;8.10;99.90
22544;DHT22;11438;52.044;8.716;2023-11-18T03:24:32;8.10;99.90
22544;DHT22;11438;52.044;8.716;2023-11-18T03:26:58;8.00;99.90
22544;DHT22;11438;52.044;8.716;2023-11-18T03:29:23;8.00;99.90
22544;DHT22;11438;52.044;8.716;2023-11-18T03:31:49;8.00;99.90
22544;DHT22;11438;52.044;8.716;2023-11-18T03:34:16;8.00;99.90
22544;DHT22;11438;52.044;8.716;2023-11-18T03:36:44;8.00;99.90
22544;DHT22;11438;52.044;8.716;2023-11-18T03:39:09;7.90;99.90
22544;DHT22;11438;52.044;8.716;2023-11-18T03:41:36;8.00;99.90
22544;DHT22;11438;52.044;8.716;2023-11-18T03:44:03;8.00;99.90
22544;DHT22;11438;52.044;8.716;2023-11-18T03:46:29;8.00;99.90
22544;DHT22;11438;52.044;8.716;2023-11-18T03:48:58;8.00;99.90
22544;DHT22;11438;52.044;8.716;2023-11-18T03:51:24;8.00;99.90
22544;DHT22;11438;52.044;8.716;2023-11-18T03:53:50;8.00;99.90
22544;DHT22;11438;52.044;8.716;2023-11-18T03:56:19;8.00;99.90
22544;DHT22;11438;52.044;8.716;2023-11-18T03:58:45;8.00;99.90
22544;DHT22;11438;52.044;8.716;2023-11-18T04:01:23;8.00;99.90
22544;DHT22;11438;52.044;8.716;2023-11-18T04:03:49;8.00;99.90
22544;DHT22;11438;52.044;8.716;2023-11-18T04:06:15;8.00;99.90
22544;DHT22;11438;52.044;8.716;2023-11-18T04:08:44;8.00;99.90
22544;DHT22;11438;52.044;8.716;2023-11-18T04:11:11;8.00;99.90
22544;DHT22;11438;52.044;8.716;2023-11-18T04:13:36;8.00;99.90
22544;DHT22;11438;52.044;8.716;2023-11-18T04:16:02;8.00;99.90
22544;DHT22;11438;52.044;8.716;2023-11-18T04:18:28;8.00;99.90
22544;DHT22;11438;52.044;8.716;2023-11-18T04:20:54;8.10;99.90
22544;DHT22;11438;52.044;8.716;2023-11-18T04:23:19;8.10;99.90
22544;DHT22;11438;52.044;8.716;2023-11-18T04:25:45;8.10;99.90
22544;DHT22;11438;52.044;8.716;2023-11-18T04:28:10;8.10;99.90
22544;DHT22;11438;52.044;8.716;2023-11-18T04:30:36;8.10;99.90
22544;DHT22;11438;52.044;8.716;2023-11-18T04:33:01;8.10;99.90
22544;DHT22;11438;52.044;8.716;2023-11-18T04:35:27;8.10;99.90
22544;DHT22;11438;52.044;8.716;2023-11-18T04:37:53;8.10;99.90
22544;DHT22;11438;52.044;8.716;2023-11-18T04:40:18;8.10;99.90
22544;DHT22;11438;52.044;8.716;2023-11-18T04:42:44;8.10;99.90
22544;DHT22;11438;52.044;8.716;2023-11-18T04:45:10;8.10;99.90
22544;DHT22;11438;52.044;8.716;2023-11-18T04:47:36;8.10;99.90
22544;DHT22;11438;52.044;8.716;2023-11-18T04:50:03;8.10;99.90
22544;DHT22;11438;52.044;8.716;2023-11-18T04:52:29;8.10;99.90
22544;DHT22;11438;52.044;8.716;2023-11-18T04:54:57;8.00;99.90
22544;DHT22;11438;52.044;8.716;2023-11-18T04:57:24;8.10;99.90
22544;DHT22;11438;52.044;8.716;2023-11-18T04:59:49;8.00;99.90
22544;DHT22;11438;52.044;8.716;2023-11-18T05:02:15;8.10;99.90
22544;DHT22;11438;52.044;8.716;2023-11-18T05:04:40;8.10;99.90
22544;DHT22;11438;52.044;8.716;2023-11-18T05:07:06;8.00;99.90
22544;DHT22;11438;52.044;8.716;2023-11-18T05:09:32;8.00;99.90
22544;DHT22;11438;52.044;8.716;2023-11-18T05:11:58;8.00;99.90
22544;DHT22;11438;52.044;8.716;2023-11-18T05:14:24;8.00;99.90
22544;DHT22;11438;52.044;8.716;2023-11-18T05:16:49;8.00;99.90
22544;DHT22;11438;52.044;8.716;2023-11-18T05:19:15;8.00;99.90
22544;DHT22;11438;52.044;8.716;2023-11-18T05:21:42;8.00;99.90
22544;DHT22;11438;52.044;8.716;2023-11-18T05:24:08;8.00;99.90
22544;DHT22;11438;52.044;8.716;2023-11-18T05:26:34;8.00;99.90
22544;DHT22;11438;52.044;8.716;2023-11-18T05:29:00;8.00;99.90
22544;DHT22;11438;52.044;8.716;2023-11-18T05:31:25;7.90;99.90
22544;DHT22;11438;52.044;8.716;2023-11-18T05:33:51;7.90;99.90
22544;DHT22;11438;52.044;8.716;2023-11-18T05:36:20;8.00;99.90
22544;DHT22;11438;52.044;8.716;2023-11-18T05:38:53;7.90;99.90
22544;DHT22;11438;52.044;8.716;2023-11-18T05:41:20;7.90;99.90
22544;DHT22;11438;52.044;8.716;2023-11-18T05:43:53;8.00;99.90
22544;DHT22;11438;52.044;8.716;2023-11-18T05:46:22;8.00;99.90
22544;DHT22;11438;52.044;8.716;2023-11-18T05:48:51;7.90;99.90
22544;DHT22;11438;52.044;8.716;2023-11-18T05:51:26;7.90;99.90
22544;DHT22;11438;52.044;8.716;2023-11-18T05:53:52;7.90;99.90
22544;DHT22;11438;52.044;8.716;2023-11-18T05:56:18;7.90;99.90
22544;DHT22;11438;52.044;8.716;2023-11-18T05:58:45;7.90;99.90
22544;DHT22;11438;52.044;8.716;2023-11-18T06:01:11;7.90;99.90
22544;DHT22;11438;52.044;8.716;2023-11-18T06:03:38;7.90;99.90
22544;DHT22;11438;52.044;8.716;2023-11-18T06:06:11;7.90;99.90
22544;DHT22;11438;52.044;8.716;2023-11-18T06:08:38;7.90;99.90
22544;DHT22;11438;52.044;8.716;2023-11-18T06:11:08;7.90;99.90
22544;DHT22;11438;52.044;8.716;2023-11-18T06:13:44;7.80;99.90
22544;DHT22;11438;52.044;8.716;2023-11-18T06:18:40;7.80;99.90
22544;DHT22;11438;52.044;8.716;2023-11-18T06:21:09;7.80;99.90
22544;DHT22;11438;52.044;8.716;2023-11-18T06:23:35;7.80;99.90
22544;DHT22;11438;52.044;8.716;2023-11-18T06:26:01;7.80;99.90
22544;DHT22;11438;52.044;8.716;2023-11-18T06:28:27;7.70;99.90
22544;DHT22;11438;52.044;8.716;2023-11-18T06:30:53;7.70;99.90
22544;DHT22;11438;52.044;8.716;2023-11-18T06:33:19;7.70;99.90
22544;DHT22;11438;52.044;8.716;2023-11-18T06:35:48;7.70;99.90
22544;DHT22;11438;52.044;8.716;2023-11-18T06:38:14;7.70;99.90
22544;DHT22;11438;52.044;8.716;2023-11-18T06:40:40;7.70;99.90
22544;DHT22;11438;52.044;8.716;2023-11-18T06:43:06;7.60;99.90
22544;DHT22;11438;52.044;8.716;2023-11-18T06:45:36;7.60;99.90
22544;DHT22;11438;52.044;8.716;2023-11-18T06:48:03;7.60;99.90
22544;DHT22;11438;52.044;8.716;2023-11-18T06:50:30;7.50;99.90
22544;DHT22;11438;52.044;8.716;2023-11-18T06:52:57;7.60;99.90
22544;DHT22;11438;52.044;8.716;2023-11-18T06:55:24;7.50;99.90
22544;DHT22;11438;52.044;8.716;2023-11-18T06:57:51;7.50;99.90
22544;DHT22;11438;52.044;8.716;2023-11-18T07:00:17;7.50;99.90
22544;DHT22;11438;52.044;8.716;2023-11-18T07:02:43;7.50;99.90
22544;DHT22;11438;52.044;8.716;2023-11-18T07:05:09;7.50;99.90
22544;DHT22;11438;52.044;8.716;2023-11-18T07:07:35;7.50;99.90
22544;DHT22;11438;52.044;8.716;2023-11-18T07:10:00;7.50;99.90
22544;DHT22;11438;52.044;8.716;2023-11-18T07:12:26;7.50;99.90
22544;DHT22;11438;52.044;8.716;2023-11-18T07:14:51;7.50;99.90
22544;DHT22;11438;52.044;8.716;2023-11-18T07:17:19;7.50;99.90
22544;DHT22;11438;52.044;8.716;2023-11-18T07:19:45;7.50;99.90
22544;DHT22;11438;52.044;8.716;2023-11-18T07:22:10;7.40;99.90
22544;DHT22;11438;52.044;8.716;2023-11-18T07:24:36;7.40;99.90
22544;DHT22;11438;52.044;8.716;2023-11-18T07:27:02;7.40;99.90
22544;DHT22;11438;52.044;8.716;2023-11-18T07:29:30;7.40;99.90
22544;DHT22;11438;52.044;8.716;2023-11-18T07:31:57;7.40;99.90
22544;DHT22;11438;52.044;8.716;2023-11-18T07:34:23;7.40;99.90
22544;DHT22;11438;52.044;8.716;2023-11-18T07:36:49;7.40;99.90
22544;DHT22;11438;52.044;8.716;2023-11-18T07:39:15;7.40;99.90
22544;DHT22;11438;52.044;8.716;2023-11-18T07:41:41;7.40;99.90
22544;DHT22;11438;52.044;8.716;2023-11-18T07:44:07;7.40;99.90
22544;DHT22;11438;52.044;8.716;2023-11-18T07:46:36;7.40;99.90
22544;DHT22;11438;52.044;8.716;2023-11-18T07:49:03;7.40;99.90
22544;DHT22;11438;52.044;8.716;2023-11-18T07:51:29;7.40;99.90
22544;DHT22;11438;52.044;8.716;2023-11-18T07:53:55;7.40;99.90
22544;DHT22;11438;52.044;8.716;2023-11-18T07:56:20;7.40;99.90
22544;DHT22;11438;52.044;8.716;2023-11-18T07:58:49;7.40;99.90
22544;DHT22;11438;52.044;8.716;2023-11-18T08:01:15;7.40;99.90
22544;DHT22;11438;52.044;8.716;2023-11-18T08:03:41;7.40;99.90
22544;DHT22;11438;52.044;8.716;2023-11-18T08:06:07;7.40;99.90
22544;DHT22;11438;52.044;8.716;2023-11-18T08:08:36;7.40;99.90
22544;DHT22;11438;52.044;8.716;2023-11-18T08:11:05;7.40;99.90
22544;DHT22;11438;52.044;8.716;2023-11-18T08:13:31;7.50;99.90
22544;DHT22;11438;52.044;8.716;2023-11-18T08:15:56;7.40;99.90
22544;DHT22;11438;52.044;8.716;2023-11-18T08:18:23;7.50;99.90
22544;DHT22;11438;52.044;8.716;2023-11-18T08:20:49;7.50;99.90
22544;DHT22;11438;52.044;8.716;2023-11-18T08:23:15;7.50;99.90
22544;DHT22;11438;52.044;8.716;2023-11-18T08:25:41;7.50;99.90
22544;DHT22;11438;52.044;8.716;2023-11-18T08:28:07;7.50;99.90
22544;DHT22;11438;52.044;8.716;2023-11-18T08:30:34;7.50;99.90
22544;DHT22;11438;52.044;8.716;2023-11-18T08:32:59;7.60;99.90
22544;DHT22;11438;52.044;8.716;2023-11-18T08:35:25;7.60;99.90
22544;DHT22;11438;52.044;8.716;2023-11-18T08:37:51;7.60;99.90
22544;DHT22;11438;52.044;8.716;2023-11-18T08:40:17;7.60;99.90
22544;DHT22;11438;52.044;8.716;2023-11-18T08:42:51;7.60;99.90
22544;DHT22;11438;52.044;8.716;2023-11-18T08:45:18;7.70;99.90
22544;DHT22;11438;52.044;8.716;2023-11-18T08:47:44;7.70;99.90
22544;DHT22;11438;52.044;8.716;2023-11-18T08:50:12;7.70;99.90
22544;DHT22;11438;52.044;8.716;2023-11-18T08:52:39;7.80;99.90
22544;DHT22;11438;52.044;8.716;2023-11-18T08:55:10;7.80;99.90
22544;DHT22;11438;52.044;8.716;2023-11-18T08:57:46;7.80;99.90
22544;DHT22;11438;52.044;8.716;2023-11-18T09:00:29;7.80;99.90
22544;DHT22;11438;52.044;8.716;2023-11-18T09:03:14;7.90;99.90
22544;DHT22;11438;52.044;8.716;2023-11-18T09:06:03;7.90;99.90
22544;DHT22;11438;52.044;8.716;2023-11-18T09:08:31;8.00;99.90
22544;DHT22;11438;52.044;8.716;2023-11-18T09:11:01;8.00;99.90
22544;DHT22;11438;52.044;8.716;2023-11-18T09:13:27;8.00;99.90
22544;DHT22;11438;52.044;8.716;2023-11-18T09:15:57;8.00;99.90
22544;DHT22;11438;52.044;8.716;2023-11-18T09:18:24;8.10;99.90
22544;DHT22;11438;52.044;8.716;2023-11-18T09:20:50;8.10;99.90
22544;DHT22;11438;52.044;8.716;2023-11-18T09:23:18;8.10;99.90
22544;DHT22;11438;52.044;8.716;2023-11-18T09:25:46;8.20;99.90
22544;DHT22;11438;52.044;8.716;2023-11-18T09:28:13;8.20;99.90
22544;DHT22;11438;52.044;8.716;2023-11-18T09:30:40;8.30;99.90
22544;DHT22;11438;52.044;8.716;2023-11-18T09:33:18;8.30;99.90
22544;DHT22;11438;52.044;8.716;2023-11-18T09:36:00;8.30;99.90
22544;DHT22;11438;52.044;8.716;2023-11-18T09:38:27;8.40;99.90
22544;DHT22;11438;52.044;8.716;2023-11-18T09:40:53;8.40;99.90
22544;DHT22;11438;52.044;8.716;2023-11-18T09:43:20;8.50;99.90
22544;DHT22;11438;52.044;8.716;2023-11-18T09:45:56;8.50;99.90
22544;DHT22;11438;52.044;8.716;2023-11-18T09:48:27;8.60;99.90
22544;DHT22;11438;52.044;8.716;2023-11-18T09:50:53;8.60;99.90
22544;DHT22;11438;52.044;8.716;2023-11-18T09:53:19;8.70;99.90
22544;DHT22;11438;52.044;8.716;2023-11-18T09:55:52;8.70;99.90
22544;DHT22;11438;52.044;8.716;2023-11-18T09:58:21;8.70;99.90
22544;DHT22;11438;52.044;8.716;2023-11-18T10:00:50;8.80;99.90
22544;DHT22;11438;52.044;8.716;2023-11-18T10:03:21;8.80;99.90
22544;DHT22;11438;52.044;8.716;2023-11-18T10:05:48;8.80;99.90
22544;DHT22;11438;52.044;8.716;2023-11-18T10:08:14;8.80;99.90
22544;DHT22;11438;52.044;8.716;2023-11-18T10:10:45;8.80;99.90
22544;DHT22;11438;52.044;8.716;2023-11-18T10:13:11;8.90;99.90
22544;DHT22;11438;52.044;8.716;2023-11-18T10:15:49;8.90;99.90
22544;DHT22;11438;52.044;8.716;2023-11-18T10:18:17;8.90;99.90
22544;DHT22;11438;52.044;8.716;2023-11-18T10:20:49;8.90;99.90
22544;DHT22;11438;52.044;8.716;2023-11-18T10:23:21;8.90;99.90
22544;DHT22;11438;52.044;8.716;2023-11-18T10:25:58;8.90;99.90
22544;DHT22;11438;52.044;8.716;2023-11-18T10:28:28;8.90;99.90
22544;DHT22;11438;52.044;8.716;2023-11-18T10:30:57;9.00;99.90
22544;DHT22;11438;52.044;8.716;2023-11-18T10:33:39;9.00;99.90
22544;DHT22;11438;52.044;8.716;2023-11-18T10:36:18;9.00;99.90
22544;DHT22;11438;52.044;8.716;2023-11-18T10:38:48;9.00;99.90
22544;DHT22;11438;52.044;8.716;2023-11-18T10:41:15;9.10;99.90
22544;DHT22;11438;52.044;8.716;2023-11-18T10:43:45;9.10;99.90
22544;DHT22;11438;52.044;8.716;2023-11-18T10:46:15;9.10;99.90
22544;DHT22;11438;52.044;8.716;2023-11-18T10:48:44;9.10;99.90
22544;DHT22;11438;52.044;8.716;2023-11-18T10:51:14;9.20;99.90
22544;DHT22;11438;52.044;8.716;2023-11-18T10:53:42;9.20;99.90
22544;DHT22;11438;52.044;8.716;2023-11-18T10:56:22;9.20;99.90
22544;DHT22;11438;52.044;8.716;2023-11-18T10:59:06;9.30;99.90
22544;DHT22;11438;52.044;8.716;2023-11-18T11:01:37;9.30;99.90
22544;DHT22;11438;52.044;8.716;2023-11-18T11:04:11;9.30;99.90
22544;DHT22;11438;52.044;8.716;2023-11-18T11:06:49;9.40;99.90
22544;DHT22;11438;52.044;8.716;2023-11-18T11:09:22;9.40;99.90
22544;DHT22;11438;52.044;8.716;2023-11-18T11:11:57;9.40;99.90
22544;DHT22;11438;52.044;8.716;2023-11-18T11:14:32;9.50;99.90
22544;DHT22;11438;52.044;8.716;2023-11-18T11:17:06;9.50;99.90
22544;DHT22;11438;52.044;8.716;2023-11-18T11:20:05;9.60;99.90
22544;DHT22;11438;52.044;8.716;2023-11-18T11:23:20;9.60;99.90
22544;DHT22;11438;52.044;8.716;2023-11-18T11:31:46;9.70;99.90
22544;DHT22;11438;52.044;8.716;2023-11-18T11:34:20;9.70;99.90
22544;DHT22;11438;52.044;8.716;2023-11-18T11:36:50;9.80;99.90
22544;DHT22;11438;52.044;8.716;2023-11-18T11:39:17;9.80;99.90
22544;DHT22;11438;52.044;8.716;2023-11-18T11:41:46;9.80;99.90
22544;DHT22;11438;52.044;8.716;2023-11-18T11:44:15;9.90;99.90
22544;DHT22;11438;52.044;8.716;2023-11-18T11:46:41;9.90;99.90
22544;DHT22;11438;52.044;8.716;2023-11-18T11:49:10;9.90;99.90
22544;DHT22;11438;52.044;8.716;2023-11-18T11:52:15;9.90;99.90
22544;DHT22;11438;52.044;8.716;2023-11-18T11:55:07;9.90;99.90
22544;DHT22;11438;52.044;8.716;2023-11-18T11:57:39;10.00;99.90
22544;DHT22;11438;52.044;8.716;2023-11-18T12:00:09;10.00;99.90
22544;DHT22;11438;52.044;8.716;2023-11-18T12:02:51;10.00;99.90
22544;DHT22;11438;52.044;8.716;2023-11-18T12:05:20;10.00;99.90
22544;DHT22;11438;52.044;8.716;2023-11-18T12:07:52;10.10;99.90
22544;DHT22;11438;52.044;8.716;2023-11-18T12:10:20;10.00;99.90
22544;DHT22;11438;52.044;8.716;2023-11-18T12:12:47;10.10;99.90
22544;DHT22;11438;52.044;8.716;2023-11-18T12:15:13;10.10;99.90
22544;DHT22;11438;52.044;8.716;2023-11-18T12:20:40;10.10;99.90
22544;DHT22;11438;52.044;8.716;2023-11-18T12:23:08;10.10;99.90
22544;DHT22;11438;52.044;8.716;2023-11-18T12:25:40;10.10;99.90
22544;DHT22;11438;52.044;8.716;2023-11-18T12:28:16;10.10;99.90
22544;DHT22;11438;52.044;8.716;2023-11-18T12:30:43;10.00;99.90
22544;DHT22;11438;52.044;8.716;2023-11-18T12:33:18;10.10;99.90
22544;DHT22;11438;52.044;8.716;2023-11-18T12:46:48;10.00;99.90
22544;DHT22;11438;52.044;8.716;2023-11-18T12:49:37;10.00;99.90
22544;DHT22;11438;52.044;8.716;2023-11-18T12:52:11;9.90;99.90
22544;DHT22;11438;52.044;8.716;2023-11-18T12:54:40;10.00;99.90
22544;DHT22;11438;52.044;8.716;2023-11-18T12:57:12;10.00;99.90
22544;DHT22;11438;52.044;8.716;2023-11-18T12:59:41;9.90;99.90
22544;DHT22;11438;52.044;8.716;2023-11-18T13:02:08;9.90;99.90
22544;DHT22;11438;52.044;8.716;2023-11-18T13:04:39;9.80;99.90
22544;DHT22;11438;52.044;8.716;2023-11-18T13:07:06;9.90;99.90
22544;DHT22;11438;52.044;8.716;2023-11-18T13:09:34;9.90;99.90
22544;DHT22;11438;52.044;8.716;2023-11-18T13:12:02;9.90;99.90
22544;DHT22;11438;52.044;8.716;2023-11-18T13:14:31;9.80;99.90
22544;DHT22;11438;52.044;8.716;2023-11-18T13:17:02;9.80;99.90
22544;DHT22;11438;52.044;8.716;2023-11-18T13:19:31;9.80;99.90
22544;DHT22;11438;52.044;8.716;2023-11-18T13:22:00;9.80;99.90
22544;DHT22;11438;52.044;8.716;2023-11-18T13:24:26;9.80;99.90
22544;DHT22;11438;52.044;8.716;2023-11-18T13:26:54;9.80;99.90
22544;DHT22;11438;52.044;8.716;2023-11-18T13:29:21;9.80;99.90
22544;DHT22;11438;52.044;8.716;2023-11-18T13:31:48;9.80;99.90
22544;DHT22;11438;52.044;8.716;2023-11-18T13:34:14;9.80;99.90
22544;DHT22;11438;52.044;8.716;2023-11-18T13:36:41;9.80;99.90
22544;DHT22;11438;52.044;8.716;2023-11-18T13:39:15;9.70;99.90
22544;DHT22;11438;52.044;8.716;2023-11-18T13:41:42;9.70;99.90
22544;DHT22;11438;52.044;8.716;2023-11-18T13:44:10;9.70;99.90
22544;DHT22;11438;52.044;8.716;2023-11-18T13:46:38;9.70;99.90
22544;DHT22;11438;52.044;8.716;2023-11-18T13:49:05;9.70;99.90
22544;DHT22;11438;52.044;8.716;2023-11-18T13:51:31;9.70;99.90
22544;DHT22;11438;52.044;8.716;2023-11-18T13:53:59;9.70;99.90
22544;DHT22;11438;52.044;8.716;2023-11-18T13:56:25;9.70;99.90
22544;DHT22;11438;52.044;8.716;2023-11-18T13:58:52;9.70;99.90
22544;DHT22;11438;52.044;8.716;2023-11-18T14:01:20;9.70;99.90
22544;DHT22;11438;52.044;8.716;2023-11-18T14:03:47;9.80;99.90
22544;DHT22;11438;52.044;8.716;2023-11-18T14:06:13;9.80;99.90
22544;DHT22;11438;52.044;8.716;2023-11-18T14:08:43;9.80;99.90
22544;DHT22;11438;52.044;8.716;2023-11-18T14:11:10;9.80;99.90
22544;DHT22;11438;52.044;8.716;2023-11-18T14:13:36;9.80;99.90
22544;DHT22;11438;52.044;8.716;2023-11-18T14:16:03;9.80;99.90
22544;DHT22;11438;52.044;8.716;2023-11-18T14:18:29;9.80;99.90
22544;DHT22;11438;52.044;8.716;2023-11-18T14:20:55;9.80;99.90
22544;DHT22;11438;52.044;8.716;2023-11-18T14:23:21;9.80;99.90
22544;DHT22;11438;52.044;8.716;2023-11-18T14:25:47;9.80;99.90
22544;DHT22;11438;52.044;8.716;2023-11-18T14:28:13;9.80;99.90
22544;DHT22;11438;52.044;8.716;2023-11-18T14:30:39;9.80;99.90
22544;DHT22;11438;52.044;8.716;2023-11-18T14:33:06;9.80;99.90
22544;DHT22;11438;52.044;8.716;2023-11-18T14:35:32;9.80;99.90
22544;DHT22;11438;52.044;8.716;2023-11-18T14:37:59;9.80;99.90
22544;DHT22;11438;52.044;8.716;2023-11-18T14:40:26;9.80;99.90
22544;DHT22;11438;52.044;8.716;2023-11-18T14:42:53;9.80;99.90
22544;DHT22;11438;52.044;8.716;2023-11-18T14:45:19;9.80;99.90
22544;DHT22;11438;52.044;8.716;2023-11-18T14:47:45;9.80;99.90
22544;DHT22;11438;52.044;8.716;2023-11-18T14:50:12;9.80;99.90
22544;DHT22;11438;52.044;8.716;2023-11-18T14:52:52;9.80;99.90
22544;DHT22;11438;52.044;8.716;2023-11-18T14:55:23;9.80;99.90
22544;DHT22;11438;52.044;8.716;2023-11-18T14:57:50;9.80;99.90
22544;DHT22;11438;52.044;8.716;2023-11-18T15:00:16;9.70;99.90
22544;DHT22;11438;52.044;8.716;2023-11-18T15:02:46;9.70;99.90
22544;DHT22;11438;52.044;8.716;2023-11-18T15:05:12;9.80;99.90
22544;DHT22;11438;52.044;8.716;2023-11-18T15:07:37;9.70;99.90
22544;DHT22;11438;52.044;8.716;2023-11-18T15:10:04;9.80;99.90
22544;DHT22;11438;52.044;8.716;2023-11-18T15:12:31;9.70;99.90
22544;DHT22;11438;52.044;8.716;2023-11-18T15:14:56;9.80;99.90
22544;DHT22;11438;52.044;8.716;2023-11-18T15:17:25;9.70;99.90
22544;DHT22;11438;52.044;8.716;2023-11-18T15:19:51;9.70;99.90
22544;DHT22;11438;52.044;8.716;2023-11-18T15:22:16;9.80;99.90
22544;DHT22;11438;52.044;8.716;2023-11-18T15:24:42;9.70;99.90
22544;DHT22;11438;52.044;8.716;2023-11-18T15:27:07;9.70;99.90
22544;DHT22;11438;52.044;8.716;2023-11-18T15:29:33;9.70;99.90
22544;DHT22;11438;52.044;8.716;2023-11-18T15:32:04;9.70;99.90
22544;DHT22;11438;52.044;8.716;2023-11-18T15:34:29;9.70;99.90
22544;DHT22;11438;52.044;8.716;2023-11-18T15:36:57;9.70;99.90
22544;DHT22;11438;52.044;8.716;2023-11-18T15:39:26;9.70;99.90
22544;DHT22;11438;52.044;8.716;2023-11-18T15:41:51;9.70;99.90
22544;DHT22;11438;52.044;8.716;2023-11-18T15:44:17;9.70;99.90
22544;DHT22;11438;52.044;8.716;2023-11-18T15:46:48;9.70;99.90
22544;DHT22;11438;52.044;8.716;2023-11-18T15:49:15;9.60;99.90
22544;DHT22;11438;52.044;8.716;2023-11-18T15:51:40;9.70;99.90
22544;DHT22;11438;52.044;8.716;2023-11-18T15:54:06;9.60;99.90
22544;DHT22;11438;52.044;8.716;2023-11-18T15:56:31;9.60;99.90
22544;DHT22;11438;52.044;8.716;2023-11-18T15:58:59;9.60;99.90
22544;DHT22;11438;52.044;8.716;2023-11-18T16:01:25;9.60;99.90
22544;DHT22;11438;52.044;8.716;2023-11-18T16:03:50;9.60;99.90
22544;DHT22;11438;52.044;8.716;2023-11-18T16:06:16;9.60;99.90
22544;DHT22;11438;52.044;8.716;2023-11-18T16:08:41;9.60;99.90
22544;DHT22;11438;52.044;8.716;2023-11-18T16:11:07;9.60;99.90
22544;DHT22;11438;52.044;8.716;2023-11-18T16:13:33;9.60;99.90